sensor_id;sensor_type;location;lat;lon;timestamp;P1;durP1;ratioP1;P2;durP2;ratioP2
14121;SDS011;7139;48.114;11.442;2023-05-21T00:00:16;11.83;;;10.73;;
14121;SDS011;7139;48.114;11.442;2023-05-21T00:02:44;12.60;;;11.40;;
14121;SDS011;7139;48.114;11.442;2023-05-21T00:05:11;12.13;;;10.93;;
14121;SDS011;7139;48.114;11.442;2023-05-21T00:07:39;11.63;;;10.63;;
14121;SDS011;7139;48.114;11.442;2023-05-21T00:10:06;12.30;;;11.00;;
14121;SDS011;7139;48.114;11.442;2023-05-21T00:12:33;12.30;;;11.20;;
14121;SDS011;7139;48.114;11.442;2023-05-21T00:15:01;12.07;;;10.97;;
14121;SDS011;7139;48.114;11.442;2023-05-21T00:17:29;11.80;;;10.70;;
14121;SDS011;7139;48.114;11.442;2023-05-21T00:19:56;12.40;;;11.20;;
14121;SDS011;7139;48.114;11.442;2023-05-21T00:22:24;12.03;;;10.93;;
14121;SDS011;7139;48.114;11.442;2023-05-21T00:24:50;12.00;;;10.80;;
14121;SDS011;7139;48.114;11.442;2023-05-21T00:27:17;11.77;;;10.73;;
14121;SDS011;7139;48.114;11.442;2023-05-21T00:29:44;11.47;;;10.40;;
14121;SDS011;7139;48.114;11.442;2023-05-21T00:32:12;12.10;;;10.97;;
14121;SDS011;7139;48.114;11.442;2023-05-21T00:34:39;12.07;;;10.87;;
14121;SDS011;7139;48.114;11.442;2023-05-21T00:37:06;11.30;;;10.27;;
14121;SDS011;7139;48.114;11.442;2023-05-21T00:39:33;12.07;;;11.07;;
14121;SDS011;7139;48.114;11.442;2023-05-21T00:42:00;12.00;;;10.90;;
14121;SDS011;7139;48.114;11.442;2023-05-21T00:44:27;12.17;;;10.97;;
14121;SDS011;7139;48.114;11.442;2023-05-21T00:46:58;12.40;;;11.20;;
14121;SDS011;7139;48.114;11.442;2023-05-21T00:49:27;11.57;;;10.47;;
14121;SDS011;7139;48.114;11.442;2023-05-21T00:51:55;11.60;;;10.60;;
14121;SDS011;7139;48.114;11.442;2023-05-21T00:54:25;11.83;;;10.83;;
14121;SDS011;7139;48.114;11.442;2023-05-21T00:56:52;11.63;;;10.60;;
14121;SDS011;7139;48.114;11.442;2023-05-21T00:59:20;12.07;;;10.97;;
14121;SDS011;7139;48.114;11.442;2023-05-21T01:01:48;12.27;;;11.07;;
14121;SDS011;7139;48.114;11.442;2023-05-21T01:04:21;11.33;;;10.33;;
14121;SDS011;7139;48.114;11.442;2023-05-21T01:06:49;11.33;;;10.33;;
14121;SDS011;7139;48.114;11.442;2023-05-21T01:09:17;11.30;;;10.20;;
14121;SDS011;7139;48.114;11.442;2023-05-21T01:11:45;11.50;;;10.50;;
14121;SDS011;7139;48.114;11.442;2023-05-21T01:14:14;12.27;;;11.07;;
14121;SDS011;7139;48.114;11.442;2023-05-21T01:16:43;11.63;;;10.53;;
14121;SDS011;7139;48.114;11.442;2023-05-21T01:19:12;12.20;;;11.10;;
14121;SDS011;7139;48.114;11.442;2023-05-21T01:21:48;11.80;;;10.70;;
14121;SDS011;7139;48.114;11.442;2023-05-21T01:24:21;12.27;;;11.13;;
14121;SDS011;7139;48.114;11.442;2023-05-21T01:26:48;12.17;;;10.97;;
14121;SDS011;7139;48.114;11.442;2023-05-21T01:29:15;11.97;;;10.70;;
14121;SDS011;7139;48.114;11.442;2023-05-21T01:31:44;10.77;;;9.73;;
14121;SDS011;7139;48.114;11.442;2023-05-21T01:34:21;11.50;;;10.40;;
14121;SDS011;7139;48.114;11.442;2023-05-21T01:36:53;14.57;;;11.30;;
14121;SDS011;7139;48.114;11.442;2023-05-21T01:39:26;12.17;;;10.97;;
14121;SDS011;7139;48.114;11.442;2023-05-21T01:41:58;12.03;;;10.93;;
14121;SDS011;7139;48.114;11.442;2023-05-21T01:44:27;12.00;;;10.73;;
14121;SDS011;7139;48.114;11.442;2023-05-21T01:46:55;11.60;;;10.60;;
14121;SDS011;7139;48.114;11.442;2023-05-21T01:49:23;11.77;;;10.70;;
14121;SDS011;7139;48.114;11.442;2023-05-21T01:51:50;11.33;;;10.23;;
14121;SDS011;7139;48.114;11.442;2023-05-21T01:54:17;11.63;;;10.60;;
14121;SDS011;7139;48.114;11.442;2023-05-21T01:56:47;11.83;;;10.63;;
14121;SDS011;7139;48.114;11.442;2023-05-21T01:59:14;11.63;;;10.47;;
14121;SDS011;7139;48.114;11.442;2023-05-21T02:01:42;12.90;;;11.70;;
14121;SDS011;7139;48.114;11.442;2023-05-21T02:04:09;11.43;;;10.00;;
14121;SDS011;7139;48.114;11.442;2023-05-21T02:06:36;12.10;;;11.00;;
14121;SDS011;7139;48.114;11.442;2023-05-21T02:09:03;11.30;;;10.30;;
14121;SDS011;7139;48.114;11.442;2023-05-21T02:11:30;12.53;;;11.33;;
14121;SDS011;7139;48.114;11.442;2023-05-21T02:13:58;11.47;;;10.37;;
14121;SDS011;7139;48.114;11.442;2023-05-21T02:16:25;12.17;;;11.00;;
14121;SDS011;7139;48.114;11.442;2023-05-21T02:18:51;11.87;;;10.63;;
14121;SDS011;7139;48.114;11.442;2023-05-21T02:21:21;11.50;;;10.30;;
14121;SDS011;7139;48.114;11.442;2023-05-21T02:23:48;11.80;;;10.60;;
14121;SDS011;7139;48.114;11.442;2023-05-21T02:26:14;11.40;;;10.30;;
14121;SDS011;7139;48.114;11.442;2023-05-21T02:28:41;11.67;;;10.67;;
14121;SDS011;7139;48.114;11.442;2023-05-21T02:31:10;10.70;;;9.70;;
14121;SDS011;7139;48.114;11.442;2023-05-21T02:33:38;10.87;;;9.80;;
14121;SDS011;7139;48.114;11.442;2023-05-21T02:36:05;11.47;;;10.37;;
14121;SDS011;7139;48.114;11.442;2023-05-21T02:38:36;11.67;;;10.57;;
14121;SDS011;7139;48.114;11.442;2023-05-21T02:41:05;10.93;;;9.83;;
14121;SDS011;7139;48.114;11.442;2023-05-21T02:43:31;11.03;;;10.00;;
14121;SDS011;7139;48.114;11.442;2023-05-21T02:45:58;11.00;;;10.00;;
14121;SDS011;7139;48.114;11.442;2023-05-21T02:48:26;10.80;;;9.80;;
14121;SDS011;7139;48.114;11.442;2023-05-21T02:50:53;10.73;;;9.83;;
14121;SDS011;7139;48.114;11.442;2023-05-21T02:53:20;11.70;;;10.60;;
14121;SDS011;7139;48.114;11.442;2023-05-21T02:55:46;11.20;;;10.10;;
14121;SDS011;7139;48.114;11.442;2023-05-21T02:58:13;10.70;;;9.70;;
14121;SDS011;7139;48.114;11.442;2023-05-21T03:00:40;11.00;;;10.00;;
14121;SDS011;7139;48.114;11.442;2023-05-21T03:03:07;10.40;;;9.50;;
14121;SDS011;7139;48.114;11.442;2023-05-21T03:05:35;10.13;;;9.13;;
14121;SDS011;7139;48.114;11.442;2023-05-21T03:08:01;11.07;;;10.03;;
14121;SDS011;7139;48.114;11.442;2023-05-21T03:10:28;10.70;;;9.60;;
14121;SDS011;7139;48.114;11.442;2023-05-21T03:12:55;10.50;;;9.57;;
14121;SDS011;7139;48.114;11.442;2023-05-21T03:15:22;10.87;;;9.87;;
14121;SDS011;7139;48.114;11.442;2023-05-21T03:17:48;10.40;;;9.40;;
14121;SDS011;7139;48.114;11.442;2023-05-21T03:20:18;10.70;;;9.70;;
14121;SDS011;7139;48.114;11.442;2023-05-21T03:22:46;10.23;;;9.33;;
14121;SDS011;7139;48.114;11.442;2023-05-21T03:25:13;10.67;;;9.73;;
14121;SDS011;7139;48.114;11.442;2023-05-21T03:27:40;11.23;;;10.23;;
14121;SDS011;7139;48.114;11.442;2023-05-21T03:30:07;10.67;;;9.57;;
14121;SDS011;7139;48.114;11.442;2023-05-21T03:32:35;9.83;;;8.83;;
14121;SDS011;7139;48.114;11.442;2023-05-21T03:35:02;10.80;;;9.80;;
14121;SDS011;7139;48.114;11.442;2023-05-21T03:37:30;10.53;;;9.53;;
14121;SDS011;7139;48.114;11.442;2023-05-21T03:39:58;10.37;;;9.47;;
14121;SDS011;7139;48.114;11.442;2023-05-21T03:42:24;10.50;;;9.60;;
14121;SDS011;7139;48.114;11.442;2023-05-21T03:44:51;9.97;;;9.00;;
14121;SDS011;7139;48.114;11.442;2023-05-21T03:47:18;10.13;;;9.23;;
14121;SDS011;7139;48.114;11.442;2023-05-21T03:49:44;10.27;;;9.20;;
14121;SDS011;7139;48.114;11.442;2023-05-21T03:52:11;10.30;;;8.90;;
14121;SDS011;7139;48.114;11.442;2023-05-21T03:54:38;9.80;;;9.00;;
14121;SDS011;7139;48.114;11.442;2023-05-21T03:57:06;9.73;;;8.83;;
14121;SDS011;7139;48.114;11.442;2023-05-21T03:59:33;9.97;;;8.93;;
14121;SDS011;7139;48.114;11.442;2023-05-21T04:02:00;9.83;;;8.93;;
14121;SDS011;7139;48.114;11.442;2023-05-21T04:04:26;9.87;;;8.97;;
14121;SDS011;7139;48.114;11.442;2023-05-21T04:06:54;10.63;;;9.50;;
14121;SDS011;7139;48.114;11.442;2023-05-21T04:09:21;9.07;;;8.27;;
14121;SDS011;7139;48.114;11.442;2023-05-21T04:11:47;10.00;;;9.10;;
14121;SDS011;7139;48.114;11.442;2023-05-21T04:14:15;9.03;;;8.13;;
14121;SDS011;7139;48.114;11.442;2023-05-21T04:16:42;9.77;;;8.87;;
14121;SDS011;7139;48.114;11.442;2023-05-21T04:19:09;9.17;;;8.37;;
14121;SDS011;7139;48.114;11.442;2023-05-21T04:21:36;9.20;;;8.40;;
14121;SDS011;7139;48.114;11.442;2023-05-21T04:24:02;8.83;;;8.03;;
14121;SDS011;7139;48.114;11.442;2023-05-21T04:26:29;9.40;;;8.50;;
14121;SDS011;7139;48.114;11.442;2023-05-21T04:28:57;9.23;;;8.33;;
14121;SDS011;7139;48.114;11.442;2023-05-21T04:31:28;9.83;;;8.30;;
14121;SDS011;7139;48.114;11.442;2023-05-21T04:33:55;9.63;;;8.63;;
14121;SDS011;7139;48.114;11.442;2023-05-21T04:36:23;9.90;;;9.00;;
14121;SDS011;7139;48.114;11.442;2023-05-21T04:38:52;9.20;;;8.30;;
14121;SDS011;7139;48.114;11.442;2023-05-21T04:41:19;9.27;;;8.47;;
14121;SDS011;7139;48.114;11.442;2023-05-21T04:43:46;10.03;;;9.13;;
14121;SDS011;7139;48.114;11.442;2023-05-21T04:46:13;9.90;;;9.00;;
14121;SDS011;7139;48.114;11.442;2023-05-21T04:48:41;9.50;;;8.60;;
14121;SDS011;7139;48.114;11.442;2023-05-21T04:51:09;9.13;;;8.17;;
14121;SDS011;7139;48.114;11.442;2023-05-21T04:53:35;8.80;;;8.00;;
14121;SDS011;7139;48.114;11.442;2023-05-21T04:56:02;8.90;;;8.00;;
14121;SDS011;7139;48.114;11.442;2023-05-21T04:58:31;8.23;;;7.43;;
14121;SDS011;7139;48.114;11.442;2023-05-21T05:00:58;9.43;;;8.30;;
14121;SDS011;7139;48.114;11.442;2023-05-21T05:03:27;9.03;;;8.23;;
14121;SDS011;7139;48.114;11.442;2023-05-21T05:05:55;9.37;;;8.40;;
14121;SDS011;7139;48.114;11.442;2023-05-21T05:08:22;9.03;;;8.30;;
14121;SDS011;7139;48.114;11.442;2023-05-21T05:10:49;9.30;;;8.40;;
14121;SDS011;7139;48.114;11.442;2023-05-21T05:13:15;9.07;;;7.83;;
14121;SDS011;7139;48.114;11.442;2023-05-21T05:15:42;8.87;;;7.73;;
14121;SDS011;7139;48.114;11.442;2023-05-21T05:18:09;9.30;;;8.07;;
14121;SDS011;7139;48.114;11.442;2023-05-21T05:20:35;9.03;;;8.13;;
14121;SDS011;7139;48.114;11.442;2023-05-21T05:23:04;8.50;;;7.73;;
14121;SDS011;7139;48.114;11.442;2023-05-21T05:25:31;8.83;;;8.03;;
14121;SDS011;7139;48.114;11.442;2023-05-21T05:27:58;8.73;;;7.93;;
14121;SDS011;7139;48.114;11.442;2023-05-21T05:30:24;8.77;;;7.97;;
14121;SDS011;7139;48.114;11.442;2023-05-21T05:32:51;8.30;;;7.60;;
14121;SDS011;7139;48.114;11.442;2023-05-21T05:35:18;9.10;;;8.00;;
14121;SDS011;7139;48.114;11.442;2023-05-21T05:37:44;9.23;;;8.23;;
14121;SDS011;7139;48.114;11.442;2023-05-21T05:40:13;8.20;;;7.50;;
14121;SDS011;7139;48.114;11.442;2023-05-21T05:42:40;8.83;;;7.97;;
14121;SDS011;7139;48.114;11.442;2023-05-21T05:45:07;8.90;;;8.13;;
14121;SDS011;7139;48.114;11.442;2023-05-21T05:47:34;9.07;;;8.17;;
14121;SDS011;7139;48.114;11.442;2023-05-21T05:50:01;7.97;;;7.27;;
14121;SDS011;7139;48.114;11.442;2023-05-21T05:52:28;10.83;;;7.93;;
14121;SDS011;7139;48.114;11.442;2023-05-21T05:54:55;8.60;;;7.80;;
14121;SDS011;7139;48.114;11.442;2023-05-21T05:57:23;8.67;;;7.80;;
14121;SDS011;7139;48.114;11.442;2023-05-21T05:59:49;8.83;;;8.03;;
14121;SDS011;7139;48.114;11.442;2023-05-21T06:02:16;8.23;;;7.53;;
14121;SDS011;7139;48.114;11.442;2023-05-21T06:04:43;8.67;;;7.90;;
14121;SDS011;7139;48.114;11.442;2023-05-21T06:07:10;8.60;;;7.80;;
14121;SDS011;7139;48.114;11.442;2023-05-21T06:09:36;8.00;;;7.20;;
14121;SDS011;7139;48.114;11.442;2023-05-21T06:12:04;8.20;;;7.50;;
14121;SDS011;7139;48.114;11.442;2023-05-21T06:14:32;8.40;;;7.60;;
14121;SDS011;7139;48.114;11.442;2023-05-21T06:16:59;7.83;;;7.13;;
14121;SDS011;7139;48.114;11.442;2023-05-21T06:19:26;8.30;;;7.60;;
14121;SDS011;7139;48.114;11.442;2023-05-21T06:21:52;8.27;;;7.57;;
14121;SDS011;7139;48.114;11.442;2023-05-21T06:24:19;8.43;;;7.57;;
14121;SDS011;7139;48.114;11.442;2023-05-21T06:26:46;8.83;;;8.03;;
14121;SDS011;7139;48.114;11.442;2023-05-21T06:29:13;8.67;;;7.93;;
14121;SDS011;7139;48.114;11.442;2023-05-21T06:31:42;9.13;;;7.27;;
14121;SDS011;7139;48.114;11.442;2023-05-21T06:34:09;11.30;;;6.93;;
14121;SDS011;7139;48.114;11.442;2023-05-21T06:36:36;7.87;;;7.07;;
14121;SDS011;7139;48.114;11.442;2023-05-21T06:39:03;8.33;;;7.53;;
14121;SDS011;7139;48.114;11.442;2023-05-21T06:41:29;8.73;;;7.90;;
14121;SDS011;7139;48.114;11.442;2023-05-21T06:43:56;8.90;;;8.00;;
14121;SDS011;7139;48.114;11.442;2023-05-21T06:46:23;8.47;;;7.27;;
14121;SDS011;7139;48.114;11.442;2023-05-21T06:48:51;8.33;;;7.60;;
14121;SDS011;7139;48.114;11.442;2023-05-21T06:51:17;7.97;;;7.23;;
14121;SDS011;7139;48.114;11.442;2023-05-21T06:53:44;8.57;;;7.77;;
14121;SDS011;7139;48.114;11.442;2023-05-21T06:56:12;7.90;;;6.87;;
14121;SDS011;7139;48.114;11.442;2023-05-21T06:58:38;8.13;;;7.33;;
14121;SDS011;7139;48.114;11.442;2023-05-21T07:01:05;7.67;;;7.03;;
14121;SDS011;7139;48.114;11.442;2023-05-21T07:03:32;8.17;;;7.43;;
14121;SDS011;7139;48.114;11.442;2023-05-21T07:06:00;8.23;;;7.43;;
14121;SDS011;7139;48.114;11.442;2023-05-21T07:08:27;7.80;;;7.10;;
14121;SDS011;7139;48.114;11.442;2023-05-21T07:10:54;8.30;;;7.50;;
14121;SDS011;7139;48.114;11.442;2023-05-21T07:13:21;8.93;;;7.27;;
14121;SDS011;7139;48.114;11.442;2023-05-21T07:15:47;7.37;;;6.70;;
14121;SDS011;7139;48.114;11.442;2023-05-21T07:18:14;7.87;;;7.10;;
14121;SDS011;7139;48.114;11.442;2023-05-21T07:20:41;7.27;;;6.57;;
14121;SDS011;7139;48.114;11.442;2023-05-21T07:23:09;7.10;;;6.50;;
14121;SDS011;7139;48.114;11.442;2023-05-21T07:25:36;7.47;;;6.70;;
14121;SDS011;7139;48.114;11.442;2023-05-21T07:28:03;6.80;;;6.20;;
14121;SDS011;7139;48.114;11.442;2023-05-21T07:30:30;7.27;;;6.67;;
14121;SDS011;7139;48.114;11.442;2023-05-21T07:32:57;7.27;;;6.67;;
14121;SDS011;7139;48.114;11.442;2023-05-21T07:35:23;8.17;;;6.60;;
14121;SDS011;7139;48.114;11.442;2023-05-21T07:37:50;7.20;;;6.60;;
14121;SDS011;7139;48.114;11.442;2023-05-21T07:40:18;7.00;;;6.40;;
14121;SDS011;7139;48.114;11.442;2023-05-21T07:42:45;6.60;;;6.00;;
14121;SDS011;7139;48.114;11.442;2023-05-21T07:45:12;6.93;;;6.37;;
14121;SDS011;7139;48.114;11.442;2023-05-21T07:47:38;6.57;;;6.07;;
14121;SDS011;7139;48.114;11.442;2023-05-21T07:50:05;6.90;;;6.30;;
14121;SDS011;7139;48.114;11.442;2023-05-21T07:52:32;6.97;;;6.37;;
14121;SDS011;7139;48.114;11.442;2023-05-21T07:54:59;7.00;;;6.40;;
14121;SDS011;7139;48.114;11.442;2023-05-21T07:57:28;7.30;;;6.70;;
14121;SDS011;7139;48.114;11.442;2023-05-21T07:59:54;7.10;;;6.50;;
14121;SDS011;7139;48.114;11.442;2023-05-21T08:02:21;6.33;;;5.77;;
14121;SDS011;7139;48.114;11.442;2023-05-21T08:04:48;7.27;;;6.57;;
14121;SDS011;7139;48.114;11.442;2023-05-21T08:07:16;7.40;;;6.70;;
14121;SDS011;7139;48.114;11.442;2023-05-21T08:09:43;6.80;;;6.20;;
14121;SDS011;7139;48.114;11.442;2023-05-21T08:12:11;6.63;;;6.13;;
14121;SDS011;7139;48.114;11.442;2023-05-21T08:14:41;6.83;;;6.20;;
14121;SDS011;7139;48.114;11.442;2023-05-21T08:17:07;7.23;;;6.30;;
14121;SDS011;7139;48.114;11.442;2023-05-21T08:19:35;6.20;;;5.70;;
14121;SDS011;7139;48.114;11.442;2023-05-21T08:22:02;6.50;;;6.00;;
14121;SDS011;7139;48.114;11.442;2023-05-21T08:24:30;7.07;;;6.40;;
14121;SDS011;7139;48.114;11.442;2023-05-21T08:26:57;6.73;;;6.00;;
14121;SDS011;7139;48.114;11.442;2023-05-21T08:29:23;6.70;;;6.10;;
14121;SDS011;7139;48.114;11.442;2023-05-21T08:31:52;6.57;;;5.93;;
14121;SDS011;7139;48.114;11.442;2023-05-21T08:34:18;6.13;;;5.60;;
14121;SDS011;7139;48.114;11.442;2023-05-21T08:36:45;6.60;;;6.00;;
14121;SDS011;7139;48.114;11.442;2023-05-21T08:39:13;8.87;;;6.47;;
14121;SDS011;7139;48.114;11.442;2023-05-21T08:41:40;7.00;;;6.40;;
14121;SDS011;7139;48.114;11.442;2023-05-21T08:44:13;7.07;;;6.40;;
14121;SDS011;7139;48.114;11.442;2023-05-21T08:46:45;6.47;;;5.97;;
14121;SDS011;7139;48.114;11.442;2023-05-21T08:49:17;7.00;;;6.27;;
14121;SDS011;7139;48.114;11.442;2023-05-21T08:51:46;6.30;;;5.70;;
14121;SDS011;7139;48.114;11.442;2023-05-21T08:54:14;7.13;;;6.43;;
14121;SDS011;7139;48.114;11.442;2023-05-21T08:56:41;7.17;;;6.30;;
14121;SDS011;7139;48.114;11.442;2023-05-21T08:59:11;6.93;;;6.23;;
14121;SDS011;7139;48.114;11.442;2023-05-21T09:01:38;6.87;;;6.23;;
14121;SDS011;7139;48.114;11.442;2023-05-21T09:04:07;6.57;;;5.97;;
14121;SDS011;7139;48.114;11.442;2023-05-21T09:06:37;7.33;;;6.63;;
14121;SDS011;7139;48.114;11.442;2023-05-21T09:09:05;7.00;;;6.30;;
14121;SDS011;7139;48.114;11.442;2023-05-21T09:11:38;7.00;;;6.30;;
14121;SDS011;7139;48.114;11.442;2023-05-21T09:14:06;7.00;;;6.33;;
14121;SDS011;7139;48.114;11.442;2023-05-21T09:16:33;7.00;;;6.33;;
14121;SDS011;7139;48.114;11.442;2023-05-21T09:19:00;7.33;;;6.13;;
14121;SDS011;7139;48.114;11.442;2023-05-21T09:21:27;6.93;;;6.23;;
14121;SDS011;7139;48.114;11.442;2023-05-21T09:23:57;7.70;;;6.90;;
14121;SDS011;7139;48.114;11.442;2023-05-21T09:26:25;7.00;;;6.40;;
14121;SDS011;7139;48.114;11.442;2023-05-21T09:28:55;7.07;;;6.37;;
14121;SDS011;7139;48.114;11.442;2023-05-21T09:31:22;6.83;;;6.30;;
14121;SDS011;7139;48.114;11.442;2023-05-21T09:33:50;7.83;;;6.80;;
14121;SDS011;7139;48.114;11.442;2023-05-21T09:36:19;7.33;;;6.70;;
14121;SDS011;7139;48.114;11.442;2023-05-21T09:38:46;6.77;;;6.27;;
14121;SDS011;7139;48.114;11.442;2023-05-21T09:41:15;7.23;;;6.60;;
14121;SDS011;7139;48.114;11.442;2023-05-21T09:43:42;8.03;;;7.23;;
14121;SDS011;7139;48.114;11.442;2023-05-21T09:46:09;7.37;;;6.67;;
14121;SDS011;7139;48.114;11.442;2023-05-21T09:48:37;7.80;;;7.00;;
14121;SDS011;7139;48.114;11.442;2023-05-21T09:51:09;7.17;;;6.57;;
14121;SDS011;7139;48.114;11.442;2023-05-21T09:53:47;7.70;;;7.10;;
14121;SDS011;7139;48.114;11.442;2023-05-21T09:56:18;7.57;;;6.97;;
14121;SDS011;7139;48.114;11.442;2023-05-21T09:58:50;7.47;;;6.73;;
14121;SDS011;7139;48.114;11.442;2023-05-21T10:01:20;7.93;;;7.22;;
14121;SDS011;7139;48.114;11.442;2023-05-21T10:03:49;7.55;;;6.90;;
14121;SDS011;7139;48.114;11.442;2023-05-21T10:06:19;7.22;;;6.63;;
14121;SDS011;7139;48.114;11.442;2023-05-21T10:08:49;7.35;;;6.60;;
14121;SDS011;7139;48.114;11.442;2023-05-21T10:11:20;7.20;;;6.50;;
14121;SDS011;7139;48.114;11.442;2023-05-21T10:13:50;7.65;;;7.03;;
14121;SDS011;7139;48.114;11.442;2023-05-21T10:16:22;7.05;;;6.45;;
14121;SDS011;7139;48.114;11.442;2023-05-21T10:18:49;8.38;;;6.30;;
14121;SDS011;7139;48.114;11.442;2023-05-21T10:21:18;7.72;;;6.90;;
14121;SDS011;7139;48.114;11.442;2023-05-21T10:23:46;7.30;;;6.70;;
14121;SDS011;7139;48.114;11.442;2023-05-21T10:26:15;7.32;;;6.53;;
14121;SDS011;7139;48.114;11.442;2023-05-21T10:28:44;7.63;;;6.93;;
14121;SDS011;7139;48.114;11.442;2023-05-21T10:31:11;7.30;;;6.70;;
14121;SDS011;7139;48.114;11.442;2023-05-21T10:33:38;7.43;;;6.78;;
14121;SDS011;7139;48.114;11.442;2023-05-21T10:36:06;7.30;;;6.70;;
14121;SDS011;7139;48.114;11.442;2023-05-21T10:38:34;7.18;;;6.50;;
14121;SDS011;7139;48.114;11.442;2023-05-21T10:41:02;7.80;;;7.00;;
14121;SDS011;7139;48.114;11.442;2023-05-21T10:43:34;7.07;;;6.38;;
14121;SDS011;7139;48.114;11.442;2023-05-21T10:46:14;7.35;;;6.65;;
14121;SDS011;7139;48.114;11.442;2023-05-21T10:48:57;7.60;;;7.00;;
14121;SDS011;7139;48.114;11.442;2023-05-21T10:51:35;6.93;;;6.32;;
14121;SDS011;7139;48.114;11.442;2023-05-21T10:54:15;7.43;;;6.45;;
14121;SDS011;7139;48.114;11.442;2023-05-21T10:57:01;7.25;;;6.35;;
14121;SDS011;7139;48.114;11.442;2023-05-21T10:59:35;7.20;;;6.50;;
14121;SDS011;7139;48.114;11.442;2023-05-21T11:02:08;7.55;;;6.10;;
14121;SDS011;7139;48.114;11.442;2023-05-21T11:04:37;6.70;;;6.00;;
14121;SDS011;7139;48.114;11.442;2023-05-21T11:07:07;7.50;;;7.00;;
14121;SDS011;7139;48.114;11.442;2023-05-21T11:09:34;35.55;;;32.45;;
14121;SDS011;7139;48.114;11.442;2023-05-21T11:12:01;42.33;;;38.88;;
14121;SDS011;7139;48.114;11.442;2023-05-21T11:14:32;21.48;;;19.38;;
14121;SDS011;7139;48.114;11.442;2023-05-21T11:17:00;62.83;;;57.33;;
14121;SDS011;7139;48.114;11.442;2023-05-21T11:19:32;43.13;;;39.80;;
14121;SDS011;7139;48.114;11.442;2023-05-21T11:22:01;73.80;;;67.50;;
14121;SDS011;7139;48.114;11.442;2023-05-21T11:24:31;19.27;;;17.77;;
14121;SDS011;7139;48.114;11.442;2023-05-21T11:27:00;18.67;;;16.77;;
14121;SDS011;7139;48.114;11.442;2023-05-21T11:29:35;13.43;;;12.15;;
14121;SDS011;7139;48.114;11.442;2023-05-21T11:32:05;11.93;;;10.88;;
14121;SDS011;7139;48.114;11.442;2023-05-21T11:34:42;35.10;;;31.75;;
14121;SDS011;7139;48.114;11.442;2023-05-21T11:42:47;7.30;;;6.60;;
14121;SDS011;7139;48.114;11.442;2023-05-21T11:45:16;6.88;;;6.28;;
14121;SDS011;7139;48.114;11.442;2023-05-21T11:47:44;6.50;;;5.90;;
14121;SDS011;7139;48.114;11.442;2023-05-21T11:50:13;5.28;;;4.70;;
14121;SDS011;7139;48.114;11.442;2023-05-21T11:52:40;5.10;;;4.60;;
14121;SDS011;7139;48.114;11.442;2023-05-21T11:55:08;5.63;;;5.13;;
14121;SDS011;7139;48.114;11.442;2023-05-21T11:57:36;5.55;;;5.05;;
14121;SDS011;7139;48.114;11.442;2023-05-21T12:00:11;6.43;;;5.30;;
14121;SDS011;7139;48.114;11.442;2023-05-21T12:02:43;6.43;;;5.80;;
14121;SDS011;7139;48.114;11.442;2023-05-21T12:05:12;6.28;;;5.78;;
14121;SDS011;7139;48.114;11.442;2023-05-21T12:07:39;7.45;;;6.40;;
14121;SDS011;7139;48.114;11.442;2023-05-21T12:10:06;6.88;;;6.28;;
14121;SDS011;7139;48.114;11.442;2023-05-21T12:12:33;6.85;;;6.15;;
14121;SDS011;7139;48.114;11.442;2023-05-21T12:15:00;6.68;;;6.07;;
14121;SDS011;7139;48.114;11.442;2023-05-21T12:17:29;7.10;;;6.50;;
14121;SDS011;7139;48.114;11.442;2023-05-21T12:19:56;6.68;;;6.03;;
14121;SDS011;7139;48.114;11.442;2023-05-21T12:22:24;6.30;;;5.72;;
14121;SDS011;7139;48.114;11.442;2023-05-21T12:24:53;6.50;;;5.90;;
14121;SDS011;7139;48.114;11.442;2023-05-21T12:27:22;7.93;;;7.00;;
14121;SDS011;7139;48.114;11.442;2023-05-21T12:29:49;5.88;;;5.38;;
14121;SDS011;7139;48.114;11.442;2023-05-21T12:32:16;6.55;;;5.95;;
14121;SDS011;7139;48.114;11.442;2023-05-21T12:34:46;6.43;;;5.85;;
14121;SDS011;7139;48.114;11.442;2023-05-21T12:37:14;6.10;;;5.50;;
14121;SDS011;7139;48.114;11.442;2023-05-21T12:39:44;6.38;;;5.80;;
14121;SDS011;7139;48.114;11.442;2023-05-21T12:42:11;6.28;;;5.78;;
14121;SDS011;7139;48.114;11.442;2023-05-21T12:44:42;6.47;;;5.88;;
14121;SDS011;7139;48.114;11.442;2023-05-21T12:47:09;6.50;;;5.93;;
14121;SDS011;7139;48.114;11.442;2023-05-21T12:49:38;5.75;;;5.22;;
14121;SDS011;7139;48.114;11.442;2023-05-21T12:52:07;6.05;;;5.65;;
14121;SDS011;7139;48.114;11.442;2023-05-21T12:54:36;6.38;;;5.88;;
14121;SDS011;7139;48.114;11.442;2023-05-21T12:57:09;7.13;;;6.13;;
14121;SDS011;7139;48.114;11.442;2023-05-21T12:59:48;7.15;;;6.55;;
14121;SDS011;7139;48.114;11.442;2023-05-21T13:02:18;6.35;;;5.75;;
14121;SDS011;7139;48.114;11.442;2023-05-21T13:04:45;6.38;;;5.88;;
14121;SDS011;7139;48.114;11.442;2023-05-21T13:07:13;7.32;;;6.60;;
14121;SDS011;7139;48.114;11.442;2023-05-21T13:09:40;6.40;;;5.90;;
14121;SDS011;7139;48.114;11.442;2023-05-21T13:12:08;6.07;;;5.47;;
14121;SDS011;7139;48.114;11.442;2023-05-21T13:14:36;6.55;;;5.95;;
14121;SDS011;7139;48.114;11.442;2023-05-21T13:17:03;6.95;;;6.35;;
14121;SDS011;7139;48.114;11.442;2023-05-21T13:19:29;6.47;;;5.90;;
14121;SDS011;7139;48.114;11.442;2023-05-21T13:21:56;5.68;;;5.25;;
14121;SDS011;7139;48.114;11.442;2023-05-21T13:24:23;6.13;;;5.63;;
14121;SDS011;7139;48.114;11.442;2023-05-21T13:26:50;6.35;;;5.82;;
14121;SDS011;7139;48.114;11.442;2023-05-21T13:29:18;5.95;;;5.38;;
14121;SDS011;7139;48.114;11.442;2023-05-21T13:31:45;6.50;;;5.90;;
14121;SDS011;7139;48.114;11.442;2023-05-21T13:34:12;6.25;;;5.68;;
14121;SDS011;7139;48.114;11.442;2023-05-21T13:36:39;6.03;;;5.53;;
14121;SDS011;7139;48.114;11.442;2023-05-21T13:39:06;6.40;;;5.90;;
14121;SDS011;7139;48.114;11.442;2023-05-21T13:41:33;6.32;;;5.82;;
14121;SDS011;7139;48.114;11.442;2023-05-21T13:43:59;6.32;;;5.75;;
14121;SDS011;7139;48.114;11.442;2023-05-21T13:46:27;6.15;;;5.65;;
14121;SDS011;7139;48.114;11.442;2023-05-21T13:48:54;5.65;;;5.25;;
14121;SDS011;7139;48.114;11.442;2023-05-21T13:51:21;7.32;;;5.80;;
14121;SDS011;7139;48.114;11.442;2023-05-21T13:53:48;5.88;;;5.38;;
14121;SDS011;7139;48.114;11.442;2023-05-21T13:56:14;6.53;;;5.93;;
14121;SDS011;7139;48.114;11.442;2023-05-21T13:58:41;8.38;;;5.72;;
14121;SDS011;7139;48.114;11.442;2023-05-21T14:01:08;6.88;;;6.03;;
14121;SDS011;7139;48.114;11.442;2023-05-21T14:03:37;6.80;;;6.03;;
14121;SDS011;7139;48.114;11.442;2023-05-21T14:06:03;6.20;;;5.70;;
14121;SDS011;7139;48.114;11.442;2023-05-21T14:08:31;6.75;;;6.25;;
14121;SDS011;7139;48.114;11.442;2023-05-21T14:10:58;11.85;;;6.60;;
14121;SDS011;7139;48.114;11.442;2023-05-21T14:13:25;7.57;;;5.93;;
14121;SDS011;7139;48.114;11.442;2023-05-21T14:15:52;7.75;;;5.78;;
14121;SDS011;7139;48.114;11.442;2023-05-21T14:18:19;6.43;;;5.93;;
14121;SDS011;7139;48.114;11.442;2023-05-21T14:20:47;6.93;;;5.80;;
14121;SDS011;7139;48.114;11.442;2023-05-21T14:23:14;6.55;;;5.88;;
14121;SDS011;7139;48.114;11.442;2023-05-21T14:25:41;7.70;;;5.57;;
14121;SDS011;7139;48.114;11.442;2023-05-21T14:28:08;8.88;;;5.68;;
14121;SDS011;7139;48.114;11.442;2023-05-21T14:30:34;6.88;;;6.03;;
14121;SDS011;7139;48.114;11.442;2023-05-21T14:33:01;6.70;;;6.00;;
14121;SDS011;7139;48.114;11.442;2023-05-21T14:35:28;6.35;;;5.85;;
14121;SDS011;7139;48.114;11.442;2023-05-21T14:37:56;7.68;;;6.30;;
14121;SDS011;7139;48.114;11.442;2023-05-21T14:40:23;7.25;;;5.85;;
14121;SDS011;7139;48.114;11.442;2023-05-21T14:42:49;6.50;;;5.90;;
14121;SDS011;7139;48.114;11.442;2023-05-21T14:45:17;6.25;;;5.75;;
14121;SDS011;7139;48.114;11.442;2023-05-21T14:47:44;7.25;;;6.38;;
14121;SDS011;7139;48.114;11.442;2023-05-21T14:50:12;6.47;;;5.97;;